BGR weather

Bangor International Airport
Bangor, Maine, United States

Public forecast

Using degrees Fahrenheit for public forecast. Weather courtesy of forecast.io.

METAR (pilot weather report)

Retrieved 2019/04/22 21:29 UTC (7 minutes ago):

KBGR 222129Z 05008KT 10SM OVC015 14/11 A3014 RMK AO2 T01440111

TAF (pilot weather forecast)

Retrieved 2019/04/22 18:22 UTC (3 hours ago):

TAF KBGR 221720Z 2218/2318 03007KT P6SM VCSH BKN010 FM222100 03008KT P6SM VCSH OVC025 FM230100 04009KT 5SM -RA OVC025 FM230300 04010KT 3SM -RA OVC030 FM231600 02009KT P6SM VCSH OVC025